createdAt,value
2019-01-13T00:02:12.376Z,6.50
2019-01-13T00:04:42.421Z,6.50
2019-01-13T00:07:12.783Z,6.50
2019-01-13T00:09:42.748Z,6.50
2019-01-13T00:12:13.436Z,6.50
2019-01-13T00:14:43.468Z,6.50
2019-01-13T00:17:13.840Z,6.50
2019-01-13T00:19:43.887Z,6.50
2019-01-13T00:22:13.923Z,6.50
2019-01-13T00:24:43.981Z,6.50
2019-01-13T00:27:14.160Z,6.50
2019-01-13T00:29:44.580Z,6.50
2019-01-13T00:32:14.628Z,6.50
2019-01-13T00:34:44.620Z,6.50
2019-01-13T00:37:15.272Z,6.50
2019-01-13T00:39:45.258Z,6.50
2019-01-13T00:42:15.308Z,6.60
2019-01-13T00:44:45.353Z,6.50
2019-01-13T00:47:15.429Z,6.50
2019-01-13T00:49:45.467Z,6.50
2019-01-13T00:52:15.830Z,6.50
2019-01-13T00:54:46.226Z,6.50
2019-01-13T00:57:16.284Z,6.50
2019-01-13T00:59:46.319Z,6.50
2019-01-13T01:02:16.389Z,6.40
2019-01-13T01:04:47.499Z,6.40
2019-01-13T01:07:17.667Z,6.40
2019-01-13T01:09:47.973Z,6.40
2019-01-13T01:12:18.067Z,6.40
2019-01-13T01:14:48.459Z,6.40
2019-01-13T01:17:18.536Z,6.40
2019-01-13T01:19:48.519Z,6.30
2019-01-13T01:22:18.556Z,6.40
2019-01-13T01:24:48.535Z,6.40
2019-01-13T01:27:18.720Z,6.40
2019-01-13T01:29:48.696Z,6.40
2019-01-13T01:32:18.755Z,6.30
2019-01-13T01:34:48.828Z,6.30
2019-01-13T01:37:18.809Z,6.40
2019-01-13T01:39:48.888Z,6.40
2019-01-13T01:42:19.681Z,6.30
2019-01-13T01:44:50.100Z,6.30
2019-01-13T01:47:21.684Z,6.30
2019-01-13T01:49:52.000Z,6.30
2019-01-13T01:52:22.043Z,6.20
2019-01-13T01:54:52.108Z,6.20
2019-01-13T01:57:22.328Z,6.20
2019-01-13T01:59:52.359Z,6.20
2019-01-13T02:02:22.488Z,6.30
2019-01-13T02:04:52.520Z,6.30
2019-01-13T02:07:22.629Z,6.30
2019-01-13T02:09:52.619Z,6.30
2019-01-13T02:12:22.680Z,6.30
2019-01-13T02:14:52.720Z,6.30
2019-01-13T02:17:23.112Z,6.30
2019-01-13T02:19:53.147Z,6.30
2019-01-13T02:22:23.203Z,6.30
2019-01-13T02:24:53.569Z,6.30
2019-01-13T02:27:23.952Z,6.30
2019-01-13T02:29:54.195Z,6.30
2019-01-13T02:32:24.241Z,6.30
2019-01-13T02:34:55.231Z,6.30
2019-01-13T02:37:25.263Z,6.40
2019-01-13T02:39:55.322Z,6.30
2019-01-13T02:42:25.288Z,6.30
2019-01-13T02:44:55.442Z,6.30
2019-01-13T02:47:25.495Z,6.30
2019-01-13T02:49:55.554Z,6.30
2019-01-13T02:52:25.543Z,6.30
2019-01-13T02:54:55.586Z,6.30
2019-01-13T02:57:25.648Z,6.30
2019-01-13T02:59:55.669Z,6.30
2019-01-13T03:02:25.656Z,6.30
2019-01-13T03:04:55.612Z,6.30
2019-01-13T03:07:26.030Z,6.30
2019-01-13T03:09:56.068Z,6.30
2019-01-13T03:12:28.272Z,6.30
2019-01-13T03:14:58.235Z,6.30
2019-01-13T03:17:28.221Z,6.30
2019-01-13T03:19:58.782Z,6.30
2019-01-13T03:22:28.856Z,6.30
2019-01-13T03:24:58.756Z,6.30
2019-01-13T03:27:29.205Z,6.30
2019-01-13T03:29:59.269Z,6.20
2019-01-13T03:32:29.518Z,6.30
2019-01-13T03:34:59.499Z,6.30
2019-01-13T03:37:30.223Z,6.30
2019-01-13T03:40:00.277Z,6.40
2019-01-13T03:42:30.319Z,6.30
2019-01-13T03:45:00.382Z,6.30
2019-01-13T03:47:30.360Z,6.30
2019-01-13T03:50:00.352Z,6.30
2019-01-13T03:52:30.383Z,6.30
2019-01-13T03:55:00.439Z,6.30
2019-01-13T03:57:30.476Z,6.40
2019-01-13T04:00:00.889Z,6.30
2019-01-13T04:02:30.912Z,6.40
2019-01-13T04:05:01.288Z,6.30
2019-01-13T04:07:31.357Z,6.40
2019-01-13T04:10:01.419Z,6.30
2019-01-13T04:12:31.471Z,6.30
2019-01-13T04:15:01.516Z,6.40
2019-01-13T04:17:31.595Z,6.30
2019-01-13T04:20:02.845Z,6.40
2019-01-13T04:22:33.000Z,6.40
2019-01-13T04:25:03.300Z,6.30
2019-01-13T04:27:33.498Z,6.40
2019-01-13T04:30:03.863Z,6.30
2019-01-13T04:32:33.968Z,6.30
2019-01-13T04:35:04.109Z,6.30
2019-01-13T04:37:34.168Z,6.40
2019-01-13T04:40:06.503Z,6.40
2019-01-13T04:42:37.577Z,6.40
2019-01-13T04:45:07.953Z,6.40
2019-01-13T04:47:37.972Z,6.40
2019-01-13T04:50:08.856Z,6.30
2019-01-13T04:52:38.977Z,6.40
2019-01-13T04:55:09.263Z,6.40
2019-01-13T04:57:39.346Z,6.40
2019-01-13T05:00:15.391Z,6.40
2019-01-13T05:02:45.471Z,6.40
2019-01-13T05:05:15.517Z,6.40
2019-01-13T05:07:45.578Z,6.40
2019-01-13T05:10:17.528Z,6.40
2019-01-13T05:12:47.635Z,6.40
2019-01-13T05:15:17.705Z,6.40
2019-01-13T05:17:47.780Z,6.40
2019-01-13T05:20:19.727Z,6.40
2019-01-13T05:22:50.860Z,6.40
2019-01-13T05:25:20.901Z,6.40
2019-01-13T05:27:51.104Z,6.40
2019-01-13T05:30:22.674Z,6.40
2019-01-13T05:32:53.056Z,6.40
2019-01-13T05:35:23.192Z,6.50
2019-01-13T05:37:53.167Z,6.50
2019-01-13T05:40:23.261Z,6.50
2019-01-13T05:42:53.292Z,6.50
2019-01-13T05:45:23.358Z,6.50
2019-01-13T05:47:53.427Z,6.50
2019-01-13T05:50:23.459Z,6.50
2019-01-13T05:52:54.883Z,6.50
2019-01-13T05:55:25.129Z,6.50
2019-01-13T05:57:55.280Z,6.40
2019-01-13T06:00:28.506Z,6.40
2019-01-13T06:02:58.576Z,6.40
2019-01-13T06:05:31.586Z,6.50
2019-01-13T06:08:01.664Z,6.50
2019-01-13T06:10:32.079Z,6.50
2019-01-13T06:13:02.084Z,6.40
2019-01-13T06:15:32.115Z,6.50
2019-01-13T06:18:02.107Z,6.50
2019-01-13T06:20:32.077Z,6.50
2019-01-13T06:23:02.160Z,6.50
2019-01-13T06:25:32.201Z,6.40
2019-01-13T06:28:02.419Z,6.40
2019-01-13T06:30:32.488Z,6.50
2019-01-13T06:33:02.537Z,6.50
2019-01-13T06:35:32.525Z,6.50
2019-01-13T06:38:02.819Z,6.50
2019-01-13T06:40:33.846Z,6.50
2019-01-13T06:43:03.818Z,6.50
2019-01-13T06:45:34.183Z,6.50
2019-01-13T06:48:04.276Z,6.50
2019-01-13T06:50:34.273Z,6.50
2019-01-13T06:53:04.912Z,6.50
2019-01-13T06:55:34.993Z,6.50
2019-01-13T06:58:05.417Z,6.50
2019-01-13T07:00:35.484Z,6.50
2019-01-13T07:03:05.551Z,6.60
2019-01-13T07:05:35.611Z,6.50
2019-01-13T07:08:05.664Z,6.60
2019-01-13T07:10:35.716Z,6.60
2019-01-13T07:13:08.808Z,6.60
2019-01-13T07:15:38.856Z,6.60
2019-01-13T07:18:08.922Z,6.60
2019-01-13T07:20:38.968Z,6.60
2019-01-13T07:23:09.028Z,6.60
2019-01-13T07:25:39.062Z,6.60
2019-01-13T07:28:09.195Z,6.70
2019-01-13T07:30:39.224Z,6.60
2019-01-13T07:33:09.700Z,6.60
2019-01-13T07:35:39.655Z,6.70
2019-01-13T07:38:09.654Z,6.60
2019-01-13T07:40:39.656Z,6.70
2019-01-13T07:43:09.719Z,6.70
2019-01-13T07:45:39.783Z,6.60
2019-01-13T07:48:09.808Z,6.70
2019-01-13T07:50:39.868Z,6.70
2019-01-13T07:53:09.917Z,6.60
2019-01-13T07:55:39.964Z,6.60
2019-01-13T07:58:09.925Z,6.70
2019-01-13T08:00:40.180Z,6.70
2019-01-13T08:03:10.219Z,6.70
2019-01-13T08:05:41.103Z,6.70
2019-01-13T08:08:12.353Z,6.70
2019-01-13T08:10:42.845Z,6.70
2019-01-13T08:13:12.812Z,6.80
2019-01-13T08:15:42.890Z,6.80
2019-01-13T08:18:12.931Z,6.80
2019-01-13T08:20:42.911Z,6.80
2019-01-13T08:23:12.980Z,6.80
2019-01-13T08:25:43.081Z,6.80
2019-01-13T08:28:13.272Z,6.90
2019-01-13T08:30:43.627Z,6.90
2019-01-13T08:33:13.689Z,6.90
2019-01-13T08:35:43.791Z,7.00
2019-01-13T08:38:13.860Z,6.90
2019-01-13T08:40:44.188Z,6.90
2019-01-13T08:43:14.602Z,7.00
2019-01-13T08:45:50.295Z,7.00
2019-01-13T08:48:16.260Z,7.00
2019-01-13T08:50:46.311Z,7.00
2019-01-13T08:53:16.372Z,7.00
2019-01-13T08:55:46.792Z,7.00
2019-01-13T08:58:16.767Z,7.00
2019-01-13T09:00:46.927Z,7.00
2019-01-13T09:03:16.820Z,7.10
2019-01-13T09:05:46.800Z,7.10
2019-01-13T09:08:16.857Z,7.10
2019-01-13T09:10:46.909Z,7.10
2019-01-13T09:13:16.899Z,7.10
2019-01-13T09:15:46.935Z,7.10
2019-01-13T09:18:16.999Z,7.10
2019-01-13T09:20:46.900Z,7.10
2019-01-13T09:23:16.893Z,7.10
2019-01-13T09:25:46.935Z,7.00
2019-01-13T09:28:17.060Z,7.10
2019-01-13T09:30:47.104Z,7.10
2019-01-13T09:33:17.173Z,7.10
2019-01-13T09:35:47.245Z,7.10
2019-01-13T09:38:17.327Z,7.10
2019-01-13T09:40:48.458Z,7.10
2019-01-13T09:43:18.476Z,7.10
2019-01-13T09:45:48.521Z,7.10
2019-01-13T09:48:18.591Z,7.10
2019-01-13T09:50:49.631Z,7.00
2019-01-13T09:53:19.688Z,7.10
2019-01-13T09:55:49.758Z,7.10
2019-01-13T09:58:19.796Z,7.10
2019-01-13T10:00:49.956Z,7.10
2019-01-13T10:03:20.004Z,7.00
2019-01-13T10:05:50.057Z,7.10
2019-01-13T10:08:20.123Z,7.10
2019-01-13T10:10:50.168Z,7.10
2019-01-13T10:13:20.149Z,7.10
2019-01-13T10:15:50.192Z,7.10
2019-01-13T10:18:20.920Z,7.10
2019-01-13T10:20:50.880Z,7.10
2019-01-13T10:23:20.979Z,7.10
2019-01-13T10:25:51.036Z,7.10
2019-01-13T10:28:21.155Z,7.20
2019-01-13T10:30:51.229Z,7.20
2019-01-13T10:33:21.301Z,7.20
2019-01-13T10:35:51.376Z,7.20
2019-01-13T10:38:21.372Z,7.20
2019-01-13T10:40:51.541Z,7.20
2019-01-13T10:43:21.432Z,7.20
2019-01-13T10:45:51.640Z,7.20
2019-01-13T10:48:22.068Z,7.20
2019-01-13T10:50:52.112Z,7.20
2019-01-13T10:53:22.091Z,7.20
2019-01-13T10:55:52.056Z,7.30
2019-01-13T10:58:22.193Z,7.30
2019-01-13T11:00:52.216Z,7.20
2019-01-13T11:03:22.310Z,7.20
2019-01-13T11:05:52.348Z,7.20
2019-01-13T11:08:22.828Z,7.20
2019-01-13T11:10:52.864Z,7.20
2019-01-13T11:13:22.868Z,7.30
2019-01-13T11:15:53.738Z,7.30
2019-01-13T11:18:23.660Z,7.30
2019-01-13T11:20:53.730Z,7.20
2019-01-13T11:23:24.858Z,7.20
2019-01-13T11:25:54.960Z,7.20
2019-01-13T11:28:25.043Z,7.30
2019-01-13T11:30:55.152Z,7.20
2019-01-13T11:33:25.183Z,7.20
2019-01-13T11:35:55.239Z,7.20
2019-01-13T11:38:25.299Z,7.20
2019-01-13T11:40:55.295Z,7.20
2019-01-13T11:43:25.271Z,7.20
2019-01-13T11:45:55.256Z,7.20
2019-01-13T11:48:25.303Z,7.20
2019-01-13T11:50:55.348Z,7.20
2019-01-13T11:53:25.344Z,7.20
2019-01-13T11:55:55.404Z,7.20
2019-01-13T11:58:25.396Z,7.20
2019-01-13T12:00:55.487Z,7.20
2019-01-13T12:03:25.528Z,7.30
2019-01-13T12:06:08.724Z,7.20
2019-01-13T12:08:38.770Z,7.20
2019-01-13T12:11:08.855Z,7.20
2019-01-13T12:13:38.887Z,7.20
2019-01-13T12:16:08.947Z,7.30
2019-01-13T12:18:40.606Z,7.20
2019-01-13T12:21:10.748Z,7.20
2019-01-13T12:23:40.789Z,7.20
2019-01-13T12:26:11.176Z,7.20
2019-01-13T12:28:41.300Z,7.20
2019-01-13T12:31:11.358Z,7.30
2019-01-13T12:33:41.712Z,7.30
2019-01-13T12:36:11.762Z,7.30
2019-01-13T12:38:42.139Z,7.20
2019-01-13T12:41:14.027Z,7.30
2019-01-13T12:43:44.056Z,7.20
2019-01-13T12:46:14.493Z,7.20
2019-01-13T12:48:45.644Z,7.30
2019-01-13T12:51:15.678Z,7.20
2019-01-13T12:53:47.937Z,7.20
2019-01-13T12:56:18.008Z,7.30
2019-01-13T12:58:48.508Z,7.20
2019-01-13T13:01:18.539Z,7.20
2019-01-13T13:03:48.621Z,7.30
2019-01-13T13:06:18.676Z,7.30
2019-01-13T13:08:48.631Z,7.30
2019-01-13T13:11:18.633Z,7.30
2019-01-13T13:13:48.908Z,7.20
2019-01-13T13:16:18.976Z,7.30
2019-01-13T13:18:48.947Z,7.30
2019-01-13T13:21:19.297Z,7.30
2019-01-13T13:23:49.328Z,7.30
2019-01-13T13:26:19.835Z,7.40
2019-01-13T13:28:49.932Z,7.40
2019-01-13T13:31:20.725Z,7.40
2019-01-13T13:33:50.748Z,7.40
2019-01-13T13:36:20.804Z,7.40
2019-01-13T13:38:50.793Z,7.50
2019-01-13T13:41:20.747Z,7.50
2019-01-13T13:43:50.849Z,7.50
2019-01-13T13:46:20.892Z,7.50
2019-01-13T13:48:51.227Z,7.50
2019-01-13T13:51:22.347Z,7.50
2019-01-13T13:53:52.379Z,7.50
2019-01-13T13:56:22.447Z,7.60
2019-01-13T13:58:52.489Z,7.60
2019-01-13T14:01:22.559Z,7.70
2019-01-13T14:03:52.584Z,7.70
2019-01-13T14:06:22.655Z,7.70
2019-01-13T14:08:52.699Z,7.70
2019-01-13T14:11:22.768Z,7.80
2019-01-13T14:13:52.803Z,7.80
2019-01-13T14:16:23.268Z,7.90
2019-01-13T14:18:53.302Z,7.90
2019-01-13T14:21:23.355Z,8.00
2019-01-13T14:23:53.350Z,8.00
2019-01-13T14:26:23.349Z,8.10
2019-01-13T14:28:53.492Z,8.10
2019-01-13T14:31:23.519Z,8.10
2019-01-13T14:33:53.628Z,8.10
2019-01-13T14:36:23.667Z,8.20
2019-01-13T14:38:53.669Z,8.30
2019-01-13T14:41:23.701Z,8.30
2019-01-13T14:43:53.684Z,8.30
2019-01-13T14:46:23.778Z,8.40
2019-01-13T14:48:54.080Z,8.50
2019-01-13T14:51:24.114Z,8.50
2019-01-13T14:53:54.196Z,8.50
2019-01-13T14:56:24.164Z,8.60
2019-01-13T14:58:55.332Z,8.60
2019-01-13T15:01:25.372Z,8.60
2019-01-13T15:03:59.931Z,8.60
2019-01-13T15:06:27.102Z,8.60
2019-01-13T15:08:57.650Z,8.60
2019-01-13T15:11:27.753Z,8.70
2019-01-13T15:13:57.823Z,8.60
2019-01-13T15:16:28.232Z,8.60
2019-01-13T15:18:58.277Z,8.60
2019-01-13T15:21:28.327Z,8.70
2019-01-13T15:23:58.288Z,8.70
2019-01-13T15:26:28.269Z,8.70
2019-01-13T15:28:58.392Z,8.70
2019-01-13T15:31:28.463Z,8.70
2019-01-13T15:33:58.497Z,8.70
2019-01-13T15:36:28.558Z,8.70
2019-01-13T15:38:58.536Z,8.70
2019-01-13T15:41:28.500Z,8.80
2019-01-13T15:43:58.559Z,8.80
2019-01-13T15:46:28.603Z,8.80
2019-01-13T15:48:58.696Z,8.80
2019-01-13T15:51:28.735Z,8.80
2019-01-13T15:53:58.808Z,8.80
2019-01-13T15:56:28.879Z,8.80
2019-01-13T15:58:59.156Z,8.80
2019-01-13T16:01:29.170Z,8.80
2019-01-13T16:04:00.888Z,8.80
2019-01-13T16:06:30.953Z,8.80
2019-01-13T16:09:01.000Z,8.80
2019-01-13T16:11:32.737Z,8.80
2019-01-13T16:14:02.767Z,8.80
2019-01-13T16:16:32.831Z,8.80
2019-01-13T16:19:03.352Z,8.90
2019-01-13T16:21:33.444Z,8.90
2019-01-13T16:24:03.627Z,8.90
2019-01-13T16:26:33.640Z,8.90
2019-01-13T16:29:04.765Z,8.80
2019-01-13T16:31:34.817Z,8.80
2019-01-13T16:34:04.895Z,8.90
2019-01-13T16:36:34.912Z,8.80
2019-01-13T16:39:07.751Z,8.90
2019-01-13T16:41:37.649Z,8.90
2019-01-13T16:44:07.725Z,8.90
2019-01-13T16:46:43.385Z,8.90
2019-01-13T16:49:09.968Z,8.90
2019-01-13T16:51:40.753Z,8.90
2019-01-13T16:54:10.820Z,8.90
2019-01-13T16:56:40.853Z,8.90
2019-01-13T16:59:10.919Z,8.90
2019-01-13T17:01:41.065Z,8.90
2019-01-13T17:04:13.398Z,8.90
2019-01-13T17:06:46.472Z,8.80
2019-01-13T17:09:16.672Z,8.80
2019-01-13T17:11:47.104Z,8.80
2019-01-13T17:14:17.276Z,8.70
2019-01-13T17:16:47.240Z,8.80
2019-01-13T17:19:17.244Z,8.80
2019-01-13T17:21:47.299Z,8.80
2019-01-13T17:24:17.252Z,8.70
2019-01-13T17:26:47.352Z,8.80
2019-01-13T17:29:18.563Z,8.70
2019-01-13T17:31:49.058Z,8.70
2019-01-13T17:34:19.464Z,8.70
2019-01-13T17:36:49.464Z,8.70
2019-01-13T17:39:19.451Z,8.70
2019-01-13T17:41:49.496Z,8.70
2019-01-13T17:44:19.556Z,8.70
2019-01-13T17:46:49.596Z,8.70
2019-01-13T17:49:20.029Z,8.70
2019-01-13T17:51:50.132Z,8.70
2019-01-13T17:54:20.151Z,8.70
2019-01-13T17:56:50.064Z,8.70
2019-01-13T17:59:20.104Z,8.70
2019-01-13T18:01:54.028Z,8.60
2019-01-13T18:04:24.168Z,8.60
2019-01-13T18:06:54.160Z,8.60
2019-01-13T18:09:24.123Z,8.60
2019-01-13T18:11:54.483Z,8.60
2019-01-13T18:14:24.773Z,8.50
2019-01-13T18:16:55.138Z,8.50
2019-01-13T18:19:25.033Z,8.50
2019-01-13T18:21:55.360Z,8.40
2019-01-13T18:24:25.700Z,8.40
2019-01-13T18:26:55.755Z,8.40
2019-01-13T18:29:25.789Z,8.30
2019-01-13T18:31:55.820Z,8.30
2019-01-13T18:34:25.874Z,8.30
2019-01-13T18:36:55.840Z,8.30
2019-01-13T18:39:25.913Z,8.20
2019-01-13T18:41:55.949Z,8.20
2019-01-13T18:44:26.196Z,8.10
2019-01-13T18:46:56.524Z,8.10
2019-01-13T18:49:26.504Z,8.10
2019-01-13T18:51:56.573Z,8.10
2019-01-13T18:54:29.071Z,8.00
2019-01-13T18:56:59.109Z,8.00
2019-01-13T18:59:29.095Z,7.90
2019-01-13T19:01:59.153Z,7.80
2019-01-13T19:04:29.045Z,7.80
2019-01-13T19:06:59.440Z,7.80
2019-01-13T19:09:29.473Z,7.80
2019-01-13T19:11:59.800Z,7.80
2019-01-13T19:14:45.520Z,7.80
2019-01-13T19:17:17.585Z,7.70
2019-01-13T19:19:50.059Z,7.70
2019-01-13T19:22:20.571Z,7.70
2019-01-13T19:24:55.664Z,7.60
2019-01-13T19:27:25.725Z,7.60
2019-01-13T19:29:55.756Z,7.50
2019-01-13T19:32:25.845Z,7.50
2019-01-13T19:34:57.037Z,7.50
2019-01-13T19:37:27.275Z,7.50
2019-01-13T19:39:57.324Z,7.40
2019-01-13T19:42:27.320Z,7.40
2019-01-13T19:44:57.609Z,7.40
2019-01-13T19:47:27.727Z,7.40
2019-01-13T19:49:57.795Z,7.30
2019-01-13T19:52:27.833Z,7.40
2019-01-13T19:54:57.892Z,7.30
2019-01-13T19:57:27.867Z,7.30
2019-01-13T19:59:57.937Z,7.30
2019-01-13T20:02:27.981Z,7.20
2019-01-13T20:04:58.060Z,7.30
2019-01-13T20:07:28.111Z,7.30
2019-01-13T20:09:58.288Z,7.10
2019-01-13T20:12:28.420Z,6.90
2019-01-13T20:14:58.513Z,6.90
2019-01-13T20:17:28.956Z,6.90
2019-01-13T20:19:58.996Z,6.90
2019-01-13T20:22:28.966Z,6.90
2019-01-13T20:24:58.969Z,6.90
2019-01-13T20:27:29.384Z,6.90
2019-01-13T20:29:59.891Z,6.90
2019-01-13T20:32:29.968Z,6.90
2019-01-13T20:35:00.027Z,6.90
2019-01-13T20:37:30.095Z,6.90
2019-01-13T20:40:00.215Z,6.90
2019-01-13T20:42:30.288Z,6.80
2019-01-13T20:45:00.541Z,6.80
2019-01-13T20:47:30.624Z,6.80
2019-01-13T20:50:00.646Z,6.80
2019-01-13T20:52:30.600Z,6.80
2019-01-13T20:55:00.595Z,6.80
2019-01-13T20:57:30.645Z,6.80
2019-01-13T21:00:00.632Z,6.80
2019-01-13T21:02:31.588Z,6.80
2019-01-13T21:05:01.653Z,6.80
2019-01-13T21:07:31.687Z,6.80
2019-01-13T21:10:03.188Z,6.80
2019-01-13T21:12:34.045Z,6.80
2019-01-13T21:15:04.720Z,6.80
2019-01-13T21:17:34.617Z,6.80
2019-01-13T21:20:06.020Z,6.80
2019-01-13T21:22:35.991Z,6.80
2019-01-13T21:25:10.424Z,6.80
2019-01-13T21:27:40.737Z,6.80
2019-01-13T21:30:17.661Z,6.70
2019-01-13T21:32:47.624Z,6.80
2019-01-13T21:35:19.580Z,6.70
2019-01-13T21:37:50.843Z,6.70
2019-01-13T21:40:21.004Z,6.80
2019-01-13T21:42:51.112Z,6.80
2019-01-13T21:45:21.612Z,6.80
2019-01-13T21:47:51.684Z,6.80
2019-01-13T21:50:23.923Z,6.80
2019-01-13T21:53:00.284Z,6.80
2019-01-13T21:55:30.426Z,6.80
2019-01-13T21:58:00.479Z,6.80
2019-01-13T22:00:30.552Z,6.80
2019-01-13T22:03:00.687Z,6.80
2019-01-13T22:05:31.426Z,6.80
2019-01-13T22:08:01.711Z,6.80
2019-01-13T22:10:32.115Z,6.80
2019-01-13T22:13:02.489Z,6.80
2019-01-13T22:15:32.639Z,6.80
2019-01-13T22:18:04.747Z,6.80
2019-01-13T22:20:34.825Z,6.80
2019-01-13T22:23:04.883Z,6.80
2019-01-13T22:25:36.620Z,6.80
2019-01-13T22:28:07.764Z,6.70
2019-01-13T22:30:38.487Z,6.80
2019-01-13T22:33:09.936Z,6.80
2019-01-13T22:35:47.972Z,6.80
2019-01-13T22:38:14.053Z,6.80
2019-01-13T22:40:44.429Z,6.80
2019-01-13T22:43:14.499Z,6.70
2019-01-13T22:45:44.575Z,6.60
2019-01-13T22:48:14.592Z,6.60
2019-01-13T22:50:44.655Z,6.50
2019-01-13T22:53:15.080Z,6.40
2019-01-13T22:55:47.638Z,6.40
2019-01-13T22:58:17.901Z,6.40
2019-01-13T23:01:26.883Z,6.40
2019-01-13T23:04:00.551Z,6.30
2019-01-13T23:06:32.872Z,6.30
2019-01-13T23:09:04.532Z,6.30
2019-01-13T23:11:37.108Z,6.20
2019-01-13T23:14:11.440Z,6.20
2019-01-13T23:16:42.083Z,6.20
2019-01-13T23:19:12.240Z,6.10
2019-01-13T23:21:42.597Z,6.20
2019-01-13T23:24:12.663Z,6.10
2019-01-13T23:26:42.656Z,6.20
2019-01-13T23:29:12.617Z,6.10
2019-01-13T23:31:42.632Z,6.10
2019-01-13T23:34:12.665Z,6.10
2019-01-13T23:36:42.723Z,6.00
2019-01-13T23:39:12.760Z,6.10
2019-01-13T23:41:42.827Z,6.10
2019-01-13T23:44:12.784Z,6.10
2019-01-13T23:46:42.847Z,6.10
2019-01-13T23:49:13.100Z,6.10
2019-01-13T23:51:44.168Z,6.10
2019-01-13T23:54:14.212Z,6.10
2019-01-13T23:56:45.272Z,6.10
2019-01-13T23:59:15.179Z,6.10
